createdAt,value
2019-02-05T00:02:21.468Z,8.07
2019-02-05T00:04:50.321Z,7.47
2019-02-05T00:07:19.066Z,7.83
2019-02-05T00:09:48.040Z,7.50
2019-02-05T00:12:16.932Z,6.90
2019-02-05T00:14:45.595Z,8.10
2019-02-05T00:17:15.030Z,7.90
2019-02-05T00:19:43.644Z,7.53
2019-02-05T00:22:12.265Z,8.33
2019-02-05T00:24:41.273Z,7.67
2019-02-05T00:27:10.040Z,7.70
2019-02-05T00:29:38.655Z,8.00
2019-02-05T00:32:07.348Z,7.80
2019-02-05T00:34:35.966Z,7.70
2019-02-05T00:37:05.019Z,8.13
2019-02-05T00:39:33.624Z,7.60
2019-02-05T00:42:02.245Z,7.70
2019-02-05T00:44:30.851Z,7.40
2019-02-05T00:46:59.478Z,7.47
2019-02-05T00:49:28.076Z,7.03
2019-02-05T00:51:56.695Z,7.27
2019-02-05T00:54:25.298Z,7.27
2019-02-05T00:56:54.194Z,7.70
2019-02-05T00:59:22.787Z,6.80
2019-02-05T01:01:51.498Z,6.60
2019-02-05T01:04:20.182Z,6.60
2019-02-05T01:06:48.869Z,6.37
2019-02-05T01:09:17.569Z,5.57
2019-02-05T01:11:46.355Z,6.90
2019-02-05T01:14:14.991Z,6.47
2019-02-05T01:16:43.747Z,5.87
2019-02-05T01:19:12.403Z,5.90
2019-02-05T01:21:41.040Z,6.63
2019-02-05T01:24:09.734Z,6.80
2019-02-05T01:26:38.814Z,6.43
2019-02-05T01:29:07.756Z,6.70
2019-02-05T01:31:36.357Z,6.90
2019-02-05T01:34:05.343Z,6.90
2019-02-05T01:36:33.931Z,6.10
2019-02-05T01:39:03.319Z,6.90
2019-02-05T01:41:32.442Z,6.70
2019-02-05T01:44:01.180Z,7.00
2019-02-05T01:46:29.793Z,6.70
2019-02-05T01:48:58.411Z,7.60
2019-02-05T01:51:27.071Z,6.90
2019-02-05T01:53:55.740Z,7.23
2019-02-05T01:56:24.346Z,7.13
2019-02-05T01:58:53.299Z,7.50
2019-02-05T02:01:21.931Z,7.10
2019-02-05T02:03:50.615Z,7.80
2019-02-05T02:06:19.299Z,7.20
2019-02-05T02:08:48.070Z,7.60
2019-02-05T02:11:16.833Z,7.20
2019-02-05T02:13:45.720Z,7.60
2019-02-05T02:16:14.413Z,7.20
2019-02-05T02:18:43.290Z,7.53
2019-02-05T02:21:14.947Z,7.77
2019-02-05T02:23:43.594Z,7.90
2019-02-05T02:26:12.202Z,7.80
2019-02-05T02:28:41.124Z,8.10
2019-02-05T02:31:09.741Z,8.07
2019-02-05T02:33:38.363Z,8.13
2019-02-05T02:36:07.053Z,8.40
2019-02-05T02:38:35.697Z,8.73
2019-02-05T02:41:04.427Z,8.63
2019-02-05T02:43:33.282Z,8.83
2019-02-05T02:46:01.903Z,8.70
2019-02-05T02:48:30.600Z,9.20
2019-02-05T02:50:59.212Z,9.40
2019-02-05T02:53:27.854Z,8.70
2019-02-05T02:55:56.460Z,8.63
2019-02-05T02:58:25.145Z,7.70
2019-02-05T03:00:53.983Z,8.90
2019-02-05T03:03:22.611Z,9.10
2019-02-05T03:05:50.917Z,8.57
2019-02-05T03:08:19.124Z,9.10
2019-02-05T03:10:47.353Z,9.47
2019-02-05T03:13:15.541Z,9.40
2019-02-05T03:15:44.192Z,8.90
2019-02-05T03:18:13.254Z,9.00
2019-02-05T03:20:41.890Z,10.20
2019-02-05T03:23:10.505Z,10.00
2019-02-05T03:25:39.120Z,9.20
2019-02-05T03:28:07.745Z,9.50
2019-02-05T03:30:36.674Z,10.77
2019-02-05T03:33:05.304Z,9.57
2019-02-05T03:35:34.006Z,9.80
2019-02-05T03:38:02.874Z,9.83
2019-02-05T03:41:03.620Z,9.63
2019-02-05T03:43:32.731Z,9.68
2019-02-05T03:46:03.619Z,9.48
2019-02-05T03:48:33.365Z,9.63
2019-02-05T03:51:37.586Z,9.95
2019-02-05T03:54:16.796Z,9.10
2019-02-05T03:56:57.811Z,9.80
2019-02-05T03:59:41.589Z,9.60
2019-02-05T04:02:41.648Z,11.10
2019-02-05T04:05:45.419Z,10.20
2019-02-05T04:08:42.709Z,9.67
2019-02-05T04:11:47.161Z,10.10
2019-02-05T04:15:05.277Z,10.40
2019-02-05T04:18:00.126Z,11.17
2019-02-05T04:20:54.541Z,10.40
2019-02-05T04:23:47.250Z,10.80
2019-02-05T04:26:35.559Z,10.67
2019-02-05T04:29:43.642Z,11.50
2019-02-05T04:32:31.299Z,11.87
2019-02-05T04:35:23.880Z,11.50
2019-02-05T04:38:27.105Z,12.13
2019-02-05T04:41:06.596Z,11.80
2019-02-05T04:44:16.531Z,13.20
2019-02-05T04:46:57.063Z,12.67
2019-02-05T04:50:00.624Z,12.93
2019-02-05T04:52:52.640Z,12.63
2019-02-05T04:55:37.622Z,13.10
2019-02-05T04:58:56.266Z,13.23
2019-02-05T05:01:52.983Z,13.00
2019-02-05T05:04:37.505Z,14.40
2019-02-05T05:07:27.437Z,15.23
2019-02-05T05:10:06.318Z,12.57
2019-02-05T05:12:34.939Z,13.50
2019-02-05T05:15:04.354Z,14.10
2019-02-05T05:17:33.065Z,15.20
2019-02-05T05:20:01.680Z,14.20
2019-02-05T05:22:30.532Z,15.90
2019-02-05T05:24:59.406Z,16.13
2019-02-05T05:27:28.420Z,15.07
2019-02-05T05:29:57.298Z,16.20
2019-02-05T05:32:26.043Z,15.30
2019-02-05T05:34:54.665Z,16.33
2019-02-05T05:37:23.314Z,18.27
2019-02-05T05:39:52.022Z,16.07
2019-02-05T05:42:20.645Z,18.07
2019-02-05T05:44:49.367Z,17.17
2019-02-05T05:47:17.997Z,18.27
2019-02-05T05:49:46.627Z,18.13
2019-02-05T05:52:15.239Z,18.00
2019-02-05T05:54:43.883Z,18.37
2019-02-05T05:57:12.502Z,17.93
2019-02-05T05:59:41.145Z,17.57
2019-02-05T06:02:09.759Z,18.00
2019-02-05T06:04:38.531Z,19.00
2019-02-05T06:07:07.177Z,18.67
2019-02-05T06:09:35.832Z,19.57
2019-02-05T06:12:04.664Z,19.53
2019-02-05T06:14:33.324Z,19.90
2019-02-05T06:17:02.009Z,21.10
2019-02-05T06:19:30.643Z,20.27
2019-02-05T06:21:59.288Z,17.17
2019-02-05T06:24:27.921Z,23.00
2019-02-05T06:26:56.511Z,21.20
2019-02-05T06:29:25.147Z,21.97
2019-02-05T06:31:53.913Z,21.67
2019-02-05T06:34:22.816Z,21.57
2019-02-05T06:36:51.420Z,22.30
2019-02-05T06:39:20.067Z,21.23
2019-02-05T06:41:48.868Z,22.60
2019-02-05T06:44:17.567Z,21.47
2019-02-05T06:46:46.268Z,22.43
2019-02-05T06:49:14.883Z,22.40
2019-02-05T06:51:43.872Z,21.60
2019-02-05T06:54:12.511Z,22.30
2019-02-05T06:56:42.496Z,22.27
2019-02-05T06:59:11.465Z,21.10
2019-02-05T07:01:40.109Z,23.53
2019-02-05T07:04:08.993Z,21.53
2019-02-05T07:06:37.635Z,23.60
2019-02-05T07:09:09.515Z,23.07
2019-02-05T07:11:38.148Z,21.83
2019-02-05T07:14:07.488Z,19.80
2019-02-05T07:16:36.106Z,23.00
2019-02-05T07:19:04.989Z,24.23
2019-02-05T07:21:33.692Z,23.17
2019-02-05T07:24:02.794Z,21.97
2019-02-05T07:26:31.415Z,22.90
2019-02-05T07:29:02.041Z,22.90
2019-02-05T07:31:30.605Z,23.43
2019-02-05T07:33:59.239Z,22.80
2019-02-05T07:36:27.962Z,23.60
2019-02-05T07:38:56.639Z,22.53
2019-02-05T07:41:25.451Z,23.23
2019-02-05T07:43:54.077Z,23.97
2019-02-05T07:46:22.797Z,23.90
2019-02-05T07:48:51.410Z,23.90
2019-02-05T07:51:20.049Z,24.83
2019-02-05T07:53:48.684Z,24.80
2019-02-05T07:56:17.543Z,23.13
2019-02-05T07:58:46.291Z,23.97
2019-02-05T08:01:17.594Z,22.97
2019-02-05T08:03:45.539Z,23.93
2019-02-05T08:06:15.838Z,23.57
2019-02-05T08:08:44.572Z,22.53
2019-02-05T08:11:13.644Z,25.10
2019-02-05T08:13:42.645Z,23.33
2019-02-05T08:16:11.560Z,24.00
2019-02-05T08:18:40.209Z,24.40
2019-02-05T08:21:08.835Z,24.53
2019-02-05T08:23:37.439Z,19.50
2019-02-05T08:26:06.147Z,21.00
2019-02-05T08:28:41.031Z,23.33
2019-02-05T08:31:05.267Z,22.17
2019-02-05T08:33:34.123Z,23.80
2019-02-05T08:36:02.751Z,25.33
2019-02-05T08:38:31.373Z,23.20
2019-02-05T08:41:00.076Z,23.80
2019-02-05T08:43:28.723Z,23.10
2019-02-05T08:45:57.436Z,24.77
2019-02-05T08:48:26.100Z,24.10
2019-02-05T08:50:54.880Z,25.07
2019-02-05T08:53:23.543Z,24.90
2019-02-05T08:55:52.355Z,22.00
2019-02-05T08:58:30.731Z,23.60
2019-02-05T09:00:51.375Z,24.27
2019-02-05T09:03:20.012Z,24.43
2019-02-05T09:05:48.703Z,24.90
2019-02-05T09:08:17.332Z,24.70
2019-02-05T09:10:46.023Z,22.47
2019-02-05T09:13:14.927Z,22.67
2019-02-05T09:15:43.544Z,22.80
2019-02-05T09:18:12.432Z,25.87
2019-02-05T09:20:41.167Z,22.90
2019-02-05T09:23:10.116Z,22.87
2019-02-05T09:25:38.974Z,23.00
2019-02-05T09:28:07.804Z,24.03
2019-02-05T09:30:36.916Z,23.07
2019-02-05T09:33:08.458Z,23.70
2019-02-05T09:35:37.070Z,22.37
2019-02-05T09:38:05.731Z,22.97
2019-02-05T09:40:34.766Z,22.47
2019-02-05T09:43:03.685Z,22.43
2019-02-05T09:45:32.624Z,21.80
2019-02-05T09:48:01.638Z,21.97
2019-02-05T09:50:31.102Z,19.90
2019-02-05T09:53:00.918Z,19.90
2019-02-05T09:55:29.556Z,20.30
2019-02-05T09:57:58.260Z,19.57
2019-02-05T10:00:32.371Z,21.63
2019-02-05T10:03:01.356Z,18.30
2019-02-05T10:05:30.777Z,19.33
2019-02-05T10:07:59.496Z,18.00
2019-02-05T10:10:28.270Z,18.67
2019-02-05T10:12:57.068Z,17.83
2019-02-05T10:15:28.018Z,18.90
2019-02-05T10:17:56.787Z,18.70
2019-02-05T10:20:25.940Z,19.00
2019-02-05T10:22:56.700Z,19.10
2019-02-05T10:25:25.578Z,18.50
2019-02-05T10:27:54.212Z,18.40
2019-02-05T10:30:25.276Z,18.80
2019-02-05T10:32:54.129Z,17.80
2019-02-05T10:35:24.461Z,17.43
2019-02-05T10:37:56.159Z,18.57
2019-02-05T10:40:25.651Z,18.00
2019-02-05T10:42:54.564Z,18.63
2019-02-05T10:45:24.588Z,19.10
2019-02-05T10:47:53.354Z,20.37
2019-02-05T10:50:22.687Z,18.90
2019-02-05T10:52:51.697Z,16.20
2019-02-05T10:55:20.702Z,16.30
2019-02-05T10:57:49.740Z,17.00
2019-02-05T11:00:18.963Z,17.40
2019-02-05T11:02:47.941Z,18.50
2019-02-05T11:05:19.164Z,17.03
2019-02-05T11:07:48.268Z,17.70
2019-02-05T11:10:17.363Z,17.90
2019-02-05T11:12:46.100Z,18.73
2019-02-05T11:15:17.195Z,18.80
2019-02-05T11:17:46.598Z,19.03
2019-02-05T11:20:17.510Z,19.80
2019-02-05T11:22:47.575Z,19.43
2019-02-05T11:25:16.656Z,19.70
2019-02-05T11:27:46.118Z,20.57
2019-02-05T11:30:23.516Z,19.43
2019-02-05T11:32:52.991Z,20.70
2019-02-05T11:35:21.981Z,20.87
2019-02-05T11:37:51.110Z,22.10
2019-02-05T11:40:29.137Z,22.00
2019-02-05T11:42:57.839Z,22.20
2019-02-05T11:45:26.680Z,21.43
2019-02-05T11:47:55.651Z,22.97
2019-02-05T11:50:24.520Z,22.23
2019-02-05T11:52:53.569Z,20.93
2019-02-05T11:55:23.877Z,22.63
2019-02-05T11:57:52.529Z,23.50
2019-02-05T12:00:38.664Z,23.30
2019-02-05T12:03:08.624Z,22.30
2019-02-05T12:05:37.621Z,21.67
2019-02-05T12:08:06.683Z,23.50
2019-02-05T12:10:35.378Z,22.10
2019-02-05T12:13:04.271Z,22.40
2019-02-05T12:15:33.052Z,21.83
2019-02-05T12:18:01.787Z,20.77
2019-02-05T12:20:30.577Z,23.60
2019-02-05T12:22:59.671Z,22.63
2019-02-05T12:25:28.557Z,23.10
2019-02-05T12:27:57.265Z,22.13
2019-02-05T12:30:28.444Z,22.03
2019-02-05T12:32:57.317Z,22.00
2019-02-05T12:35:25.935Z,22.93
2019-02-05T12:37:54.813Z,22.13
2019-02-05T12:40:23.759Z,22.87
2019-02-05T12:42:52.671Z,16.43
2019-02-05T12:45:24.236Z,21.40
2019-02-05T12:47:53.083Z,22.93
2019-02-05T12:50:24.229Z,22.60
2019-02-05T12:52:53.485Z,22.20
2019-02-05T12:55:22.586Z,22.07
2019-02-05T12:57:51.375Z,22.67
2019-02-05T13:00:22.916Z,21.23
2019-02-05T13:02:54.486Z,21.63
2019-02-05T13:05:22.314Z,20.90
2019-02-05T13:07:50.902Z,21.63
2019-02-05T13:10:22.082Z,22.00
2019-02-05T13:12:50.737Z,21.50
2019-02-05T13:15:19.523Z,20.77
2019-02-05T13:17:48.332Z,23.77
2019-02-05T13:20:20.037Z,21.40
2019-02-05T13:22:48.955Z,22.70
2019-02-05T13:25:20.087Z,22.07
2019-02-05T13:27:48.796Z,20.80
2019-02-05T13:30:20.020Z,21.33
2019-02-05T13:32:48.756Z,22.90
2019-02-05T13:35:17.540Z,21.27
2019-02-05T13:37:46.198Z,22.13
2019-02-05T13:40:17.852Z,21.77
2019-02-05T13:42:46.863Z,21.30
2019-02-05T13:45:17.952Z,20.50
2019-02-05T13:47:46.600Z,21.73
2019-02-05T13:50:32.501Z,22.47
2019-02-05T13:52:53.827Z,21.77
2019-02-05T13:55:25.305Z,22.73
2019-02-05T13:57:54.061Z,20.77
2019-02-05T14:00:27.894Z,23.47
2019-02-05T14:02:56.800Z,22.80
2019-02-05T14:05:26.001Z,22.90
2019-02-05T14:07:54.705Z,22.80
2019-02-05T14:10:26.371Z,23.10
2019-02-05T14:12:55.156Z,23.27
2019-02-05T14:15:25.791Z,23.53
2019-02-05T14:17:54.585Z,24.37
2019-02-05T14:20:24.147Z,22.57
2019-02-05T14:22:52.752Z,24.90
2019-02-05T14:25:21.847Z,24.10
2019-02-05T14:27:50.620Z,24.40
2019-02-05T14:30:31.045Z,24.67
2019-02-05T14:32:59.845Z,23.87
2019-02-05T14:35:28.945Z,23.83
2019-02-05T14:37:57.969Z,23.07
2019-02-05T14:40:26.842Z,24.87
2019-02-05T14:42:56.437Z,24.53
2019-02-05T14:45:25.143Z,25.60
2019-02-05T14:47:54.041Z,26.37
2019-02-05T14:50:24.962Z,25.70
2019-02-05T14:52:53.772Z,23.87
2019-02-05T14:55:22.758Z,26.10
2019-02-05T14:57:51.527Z,24.97
2019-02-05T15:00:39.676Z,24.70
2019-02-05T15:03:09.660Z,23.67
2019-02-05T15:05:39.148Z,24.67
2019-02-05T15:08:08.250Z,24.90
2019-02-05T15:10:36.972Z,23.23
2019-02-05T15:13:06.731Z,26.27
2019-02-05T15:15:35.847Z,25.77
2019-02-05T15:18:05.958Z,24.27
2019-02-05T15:20:37.052Z,25.10
2019-02-05T15:23:06.727Z,24.70
2019-02-05T15:25:35.525Z,25.53
2019-02-05T15:28:04.739Z,24.57
2019-02-05T15:30:38.145Z,24.20
2019-02-05T15:33:16.627Z,25.90
2019-02-05T15:35:50.162Z,24.00
2019-02-05T15:38:19.101Z,25.60
2019-02-05T15:40:48.359Z,23.43
2019-02-05T15:43:17.278Z,23.63
2019-02-05T15:45:46.082Z,22.33
2019-02-05T15:48:14.900Z,24.27
2019-02-05T15:50:43.719Z,23.10
2019-02-05T15:53:12.407Z,23.10
2019-02-05T15:55:41.509Z,24.10
2019-02-05T15:58:10.212Z,24.17
2019-02-05T16:00:39.116Z,24.37
2019-02-05T16:03:08.641Z,24.27
2019-02-05T16:05:37.524Z,25.40
2019-02-05T16:08:06.667Z,23.90
2019-02-05T16:10:35.492Z,26.00
2019-02-05T16:13:04.579Z,26.57
2019-02-05T16:15:33.344Z,25.60
2019-02-05T16:18:01.976Z,26.13
2019-02-05T16:20:30.786Z,26.33
2019-02-05T16:22:59.388Z,26.03
2019-02-05T16:25:28.133Z,26.70
2019-02-05T16:27:57.027Z,26.10
2019-02-05T16:30:25.776Z,25.57
2019-02-05T16:32:54.388Z,25.07
2019-02-05T16:35:23.135Z,25.37
2019-02-05T16:37:51.930Z,25.37
2019-02-05T16:40:22.719Z,23.60
2019-02-05T16:42:51.874Z,23.80
2019-02-05T16:45:22.851Z,24.77
2019-02-05T16:47:51.500Z,25.77
2019-02-05T16:50:22.768Z,25.30
2019-02-05T16:52:51.640Z,24.07
2019-02-05T16:55:20.700Z,22.20
2019-02-05T16:57:50.227Z,23.77
2019-02-05T17:00:21.473Z,23.70
2019-02-05T17:02:50.337Z,24.93
2019-02-05T17:05:20.023Z,23.40
2019-02-05T17:07:48.819Z,22.07
2019-02-05T17:10:18.560Z,23.87
2019-02-05T17:12:47.657Z,22.30
2019-02-05T17:15:17.052Z,23.93
2019-02-05T17:17:46.007Z,24.20
2019-02-05T17:20:18.308Z,23.53
2019-02-05T17:22:47.140Z,23.80
2019-02-05T17:25:17.271Z,23.37
2019-02-05T17:27:46.376Z,21.77
2019-02-05T17:30:17.768Z,21.83
2019-02-05T17:32:46.503Z,20.17
2019-02-05T17:35:15.212Z,18.40
2019-02-05T17:37:44.161Z,20.73
2019-02-05T17:40:15.251Z,20.07
2019-02-05T17:42:43.980Z,19.80
2019-02-05T17:45:32.967Z,19.10
2019-02-05T17:48:03.620Z,19.57
2019-02-05T17:50:32.271Z,21.27
2019-02-05T17:53:01.327Z,19.10
2019-02-05T17:55:30.127Z,19.53
2019-02-05T17:57:59.002Z,19.70
2019-02-05T18:00:56.812Z,18.50
2019-02-05T18:03:27.061Z,19.20
2019-02-05T18:05:55.966Z,19.27
2019-02-05T18:08:24.659Z,21.83
2019-02-05T18:10:53.595Z,18.33
2019-02-05T18:13:22.257Z,16.97
2019-02-05T18:15:50.932Z,16.70
2019-02-05T18:18:19.883Z,17.40
2019-02-05T18:20:48.541Z,17.90
2019-02-05T18:23:17.299Z,16.80
2019-02-05T18:25:46.047Z,17.70
2019-02-05T18:28:14.819Z,17.50
2019-02-05T18:30:43.492Z,16.90
2019-02-05T18:33:12.518Z,17.10
2019-02-05T18:35:41.187Z,17.50
2019-02-05T18:38:12.099Z,17.33
2019-02-05T18:40:40.849Z,18.50
2019-02-05T18:43:09.615Z,17.80
2019-02-05T18:45:38.329Z,18.53
2019-02-05T18:48:07.537Z,18.00
2019-02-05T18:50:36.237Z,18.10
2019-02-05T18:53:05.066Z,19.27
2019-02-05T18:55:34.239Z,19.37
2019-02-05T18:58:09.447Z,18.93
2019-02-05T19:00:38.676Z,18.33
2019-02-05T19:03:15.019Z,18.80
2019-02-05T19:05:37.088Z,20.10
2019-02-05T19:08:06.440Z,20.03
2019-02-05T19:10:35.194Z,19.87
2019-02-05T19:13:04.373Z,21.00
2019-02-05T19:15:34.377Z,19.73
2019-02-05T19:18:03.760Z,19.87
2019-02-05T19:20:32.549Z,19.50
2019-02-05T19:23:01.952Z,21.20
2019-02-05T19:25:48.315Z,21.67
2019-02-05T19:28:25.773Z,22.17
2019-02-05T19:30:57.238Z,23.07
2019-02-05T19:33:27.642Z,22.97
2019-02-05T19:35:56.327Z,24.53
2019-02-05T19:38:25.000Z,23.83
2019-02-05T19:40:57.679Z,23.90
2019-02-05T19:43:25.717Z,25.07
2019-02-05T19:46:02.607Z,25.43
2019-02-05T19:48:45.069Z,24.50
2019-02-05T19:51:16.164Z,24.53
2019-02-05T19:53:44.615Z,24.70
2019-02-05T19:56:14.642Z,24.17
2019-02-05T19:58:43.623Z,23.93
2019-02-05T20:01:12.320Z,24.37
2019-02-05T20:03:41.087Z,24.67
2019-02-05T20:06:09.737Z,24.30
2019-02-05T20:08:38.392Z,23.80
2019-02-05T20:11:07.201Z,25.07
2019-02-05T20:13:40.257Z,24.93
2019-02-05T20:16:06.648Z,25.10
2019-02-05T20:18:35.335Z,24.73
2019-02-05T20:21:04.124Z,24.63
2019-02-05T20:23:32.875Z,24.10
2019-02-05T20:26:01.780Z,26.73
2019-02-05T20:28:30.464Z,27.07
2019-02-05T20:30:59.435Z,26.33
2019-02-05T20:33:28.248Z,26.00
2019-02-05T20:35:56.886Z,26.10
2019-02-05T20:38:25.572Z,26.90
2019-02-05T20:40:54.388Z,27.37
2019-02-05T20:43:23.172Z,27.90
2019-02-05T20:45:51.863Z,27.87
2019-02-05T20:48:20.672Z,28.50
2019-02-05T20:50:49.369Z,29.30
2019-02-05T20:53:18.048Z,28.93
2019-02-05T20:55:47.273Z,30.80
2019-02-05T20:58:15.967Z,29.83
2019-02-05T21:00:44.751Z,30.73
2019-02-05T21:03:13.380Z,29.03
2019-02-05T21:05:42.265Z,29.00
2019-02-05T21:08:10.912Z,28.93
2019-02-05T21:10:39.753Z,27.27
2019-02-05T21:13:08.538Z,25.97
2019-02-05T21:15:37.246Z,28.17
2019-02-05T21:18:05.941Z,27.83
2019-02-05T21:20:34.759Z,28.00
2019-02-05T21:23:04.316Z,28.93
2019-02-05T21:25:32.981Z,28.07
2019-02-05T21:28:01.864Z,28.67
2019-02-05T21:30:31.226Z,29.40
2019-02-05T21:32:59.839Z,28.33
2019-02-05T21:35:28.495Z,27.80
2019-02-05T21:37:57.395Z,27.83
2019-02-05T21:40:26.119Z,28.97
2019-02-05T21:42:54.823Z,30.63
2019-02-05T21:45:23.965Z,30.07
2019-02-05T21:47:52.672Z,30.07
2019-02-05T21:50:22.438Z,32.00
2019-02-05T21:52:51.359Z,30.77
2019-02-05T21:55:20.396Z,37.07
2019-02-05T21:57:49.185Z,37.10
2019-02-05T22:00:20.574Z,33.67
2019-02-05T22:02:49.699Z,35.50
2019-02-05T22:05:18.479Z,33.47
2019-02-05T22:07:47.107Z,33.30
2019-02-05T22:10:15.937Z,33.97
2019-02-05T22:12:45.668Z,32.13
2019-02-05T22:15:14.966Z,34.90
2019-02-05T22:17:43.580Z,33.47
2019-02-05T22:20:17.352Z,33.60
2019-02-05T22:22:46.026Z,30.53
2019-02-05T22:25:17.739Z,28.17
2019-02-05T22:27:46.420Z,31.40
2019-02-05T22:30:18.179Z,33.30
2019-02-05T22:32:46.951Z,32.60
2019-02-05T22:35:16.349Z,32.03
2019-02-05T22:37:45.402Z,31.90
2019-02-05T22:40:14.621Z,35.43
2019-02-05T22:42:43.237Z,36.27
2019-02-05T22:45:12.868Z,36.90
2019-02-05T22:47:41.676Z,36.10
2019-02-05T22:50:13.597Z,36.20
2019-02-05T22:52:43.504Z,37.27
2019-02-05T22:55:13.050Z,34.90
2019-02-05T22:57:42.332Z,35.87
2019-02-05T23:00:38.165Z,35.40
2019-02-05T23:03:07.770Z,34.60
2019-02-05T23:06:20.606Z,34.30
2019-02-05T23:08:49.823Z,33.83
2019-02-05T23:11:41.260Z,37.20
2019-02-05T23:14:10.044Z,37.60
2019-02-05T23:16:38.735Z,36.90
2019-02-05T23:19:07.527Z,36.33
2019-02-05T23:21:36.549Z,37.60
2019-02-05T23:24:05.527Z,36.40
2019-02-05T23:26:34.183Z,40.93
2019-02-05T23:29:02.832Z,40.20
2019-02-05T23:31:31.495Z,38.90
2019-02-05T23:34:00.178Z,38.60
2019-02-05T23:36:28.827Z,37.10
2019-02-05T23:38:57.803Z,39.15
2019-02-05T23:41:26.428Z,39.83
2019-02-05T23:43:55.123Z,39.37
2019-02-05T23:46:23.774Z,38.50
2019-02-05T23:48:52.497Z,36.80
2019-02-05T23:51:21.354Z,36.20
2019-02-05T23:53:50.487Z,36.00
2019-02-05T23:56:25.591Z,31.67
2019-02-05T23:58:49.623Z,31.60
